Worthing, United Kingdom
Current Conditions -  °F | °C
As of 7:50 PM on Wednesday 26 Nov 2014 (Local Time) from EGKA Reporting Station
Moderate Fog Moderate Fog  
Wind Chill: 50°   Ceiling: 200
Heat Index: 50°   Visibility: 0.93mi
Dew Point: 50°   Wind: 7mph
Humidity: 100%   Direction: 350°N
Pressure: 29.77"   Gusts: NA
Location:  50.81°N, 0.37°W
Report Text: EGKA 261950Z 35006KT 1500 BR VCFG BKN002 10/10 Q1008
Loading
Personal Weather Stations






























Interactive Weather Map New forecast layout! Learn more

10-Day Weather Forecast

Advertisements
Track Severe Weather on mobile